Time;durP1;ratioP1;P1;durP2;ratioP2;P2;SDS_P1;SDS_P2;PMS_P1;PMS_P2;Temp;Humidity;BMP_temperature;BMP_pressure;BME280_temperature;BME280_humidity;BME280_pressure;Samples;Min_cycle;Max_cycle;Signal;HPM_P1;HPM_P2
2021/10/04 00:00:12;;;;;;;;;2.00;2.00;;;;;;;;5070333;28;46781;-93
2021/10/04 00:02:38;;;;;;;;;3.75;2.00;;;;;;;;5073009;27;45648;-93
2021/10/04 00:05:03;;;;;;;;;2.00;2.00;;;;;;;;5070851;28;45271;-93
2021/10/04 00:07:28;;;;;;;;;2.00;2.00;;;;;;;;5069223;27;46622;-92
2021/10/04 00:09:54;;;;;;;;;2.25;1.00;;;;;;;;5069218;28;46087;-92
2021/10/04 00:12:24;;;;;;;;;1.75;1.25;;;;;;;;5065105;28;46254;-92
2021/10/04 00:14:49;;;;;;;;;1.75;1.75;;;;;;;;5074449;28;45496;-93
2021/10/04 00:17:17;;;;;;;;;1.00;1.00;;;;;;;;5075123;28;45512;-93
2021/10/04 00:19:42;;;;;;;;;2.00;2.00;;;;;;;;5071116;27;46708;-92
2021/10/04 00:22:10;;;;;;;;;2.75;1.25;;;;;;;;5071468;28;47653;-92
2021/10/04 00:24:36;;;;;;;;;1.00;1.00;;;;;;;;5065345;28;45819;-93
2021/10/04 00:27:01;;;;;;;;;1.00;1.00;;;;;;;;5068179;27;45642;-93
2021/10/04 00:29:27;;;;;;;;;1.75;1.00;;;;;;;;5071390;27;45537;-94
2021/10/04 00:31:52;;;;;;;;;1.00;1.00;;;;;;;;5070829;28;45524;-93
2021/10/04 00:34:19;;;;;;;;;1.50;1.25;;;;;;;;5022995;28;1457119;-93
2021/10/04 00:36:45;;;;;;;;;1.00;1.00;;;;;;;;5068799;27;46876;-92
2021/10/04 00:39:30;;;;;;;;;;;;;;;;;;3497595;27;55939209;-92
2021/10/04 00:41:55;;;;;;;;;1.25;1.25;;;;;;;;4735190;28;6208746;-93
2021/10/04 00:44:21;;;;;;;;;2.75;1.00;;;;;;;;5072231;28;45507;-94
2021/10/04 00:46:46;;;;;;;;;1.00;1.00;;;;;;;;5075169;27;45596;-93
2021/10/04 00:49:16;;;;;;;;;0.00;0.00;;;;;;;;5067934;27;45621;-93
2021/10/04 00:51:42;;;;;;;;;0.25;0.25;;;;;;;;5067650;28;44889;-93
2021/10/04 00:54:09;;;;;;;;;1.00;1.00;;;;;;;;5068201;27;45624;-93
2021/10/04 00:56:35;;;;;;;;;0.25;0.25;;;;;;;;5067129;27;46730;-93
2021/10/04 00:59:01;;;;;;;;;0.75;0.75;;;;;;;;5069163;27;45593;-93
2021/10/04 01:01:28;;;;;;;;;1.00;1.00;;;;;;;;5066770;27;45797;-92
2021/10/04 01:04:05;;;;;;;;;1.25;0.25;;;;;;;;5063858;27;45545;-93
2021/10/04 01:06:31;;;;;;;;;2.50;1.25;;;;;;;;5064394;28;45729;-92
2021/10/04 01:08:56;;;;;;;;;2.00;1.25;;;;;;;;5069668;27;45764;-92
2021/10/04 01:11:23;;;;;;;;;2.25;1.75;;;;;;;;5072508;27;45438;-92
2021/10/04 01:13:48;;;;;;;;;1.00;1.00;;;;;;;;5070416;28;45838;-93
2021/10/04 01:16:16;;;;;;;;;3.00;1.50;;;;;;;;5072866;28;46969;-92
2021/10/04 01:18:43;;;;;;;;;1.00;1.00;;;;;;;;5064818;27;46060;-93
2021/10/04 01:21:10;;;;;;;;;1.00;1.00;;;;;;;;5066190;28;45596;-93
2021/10/04 01:23:38;;;;;;;;;1.00;1.00;;;;;;;;5065221;27;46223;-93
2021/10/04 01:26:11;;;;;;;;;1.00;1.00;;;;;;;;5068045;27;73407;-92
2021/10/04 01:28:37;;;;;;;;;1.00;1.00;;;;;;;;5065119;28;45570;-92
2021/10/04 01:31:05;;;;;;;;;2.00;1.00;;;;;;;;5065379;28;45332;-93
2021/10/04 01:33:31;;;;;;;;;1.00;1.00;;;;;;;;5071854;28;45740;-92
2021/10/04 01:35:56;;;;;;;;;0.50;0.50;;;;;;;;5068934;27;45631;-93
2021/10/04 01:38:22;;;;;;;;;0.25;0.25;;;;;;;;5069963;27;45551;-92
2021/10/04 01:40:47;;;;;;;;;0.50;0.00;;;;;;;;5073128;27;45537;-92
2021/10/04 01:43:13;;;;;;;;;3.25;1.00;;;;;;;;5068377;27;45636;-92
2021/10/04 01:45:41;;;;;;;;;0.75;0.75;;;;;;;;5066717;27;45720;-92
2021/10/04 01:48:21;;;;;;;;;1.00;1.00;;;;;;;;5066441;28;47636;-92
2021/10/04 01:50:47;;;;;;;;;1.25;1.25;;;;;;;;5068315;28;45596;-92
2021/10/04 01:53:12;;;;;;;;;1.00;1.00;;;;;;;;5070587;28;46041;-93
2021/10/04 01:55:38;;;;;;;;;1.25;0.50;;;;;;;;5067439;27;45498;-92
2021/10/04 01:58:04;;;;;;;;;2.75;1.00;;;;;;;;5065692;28;45690;-93
2021/10/04 02:00:29;;;;;;;;;1.00;1.00;;;;;;;;5068773;27;45583;-93
2021/10/04 02:02:55;;;;;;;;;1.25;1.00;;;;;;;;5068146;28;45695;-92
2021/10/04 02:05:21;;;;;;;;;1.00;1.00;;;;;;;;5065819;28;46775;-93
2021/10/04 02:07:47;;;;;;;;;2.50;2.50;;;;;;;;5069229;28;45722;-94
2021/10/04 02:10:13;;;;;;;;;1.00;1.00;;;;;;;;5062942;27;45209;-93
2021/10/04 02:12:50;;;;;;;;;;;;;;;;;;3322626;28;60995013;-92
2021/10/04 02:15:18;;;;;;;;;1.67;1.67;;;;;;;;5063567;27;45554;-92
2021/10/04 02:17:44;;;;;;;;;1.00;1.00;;;;;;;;5071670;27;45524;-93
2021/10/04 02:20:12;;;;;;;;;1.00;1.00;;;;;;;;5068219;27;45671;-92
2021/10/04 02:22:37;;;;;;;;;3.25;2.00;;;;;;;;3429001;27;25177646;-92
2021/10/04 02:25:06;;;;;;;;;1.00;1.00;;;;;;;;1991223;27;57631279;-92
2021/10/04 02:27:43;;;;;;;;;2.00;1.00;;;;;;;;2652723;28;61354996;-92
2021/10/04 02:30:17;;;;;;;;;0.00;0.00;;;;;;;;4338743;28;16006620;-92
2021/10/04 02:32:51;;;;;;;;;2.00;1.00;;;;;;;;4945164;28;2480331;-93
2021/10/04 02:35:16;;;;;;;;;1.33;1.00;;;;;;;;4740612;27;7088578;-93
2021/10/04 02:37:44;;;;;;;;;0.00;0.00;;;;;;;;3916270;27;25404627;-93
2021/10/04 02:40:10;;;;;;;;;3.25;2.00;;;;;;;;5054159;27;319784;-93
2021/10/04 02:42:36;;;;;;;;;1.00;1.00;;;;;;;;2568336;28;48007722;-93
2021/10/04 02:45:02;;;;;;;;;1.00;1.00;;;;;;;;5064203;27;45474;-93
2021/10/04 02:47:30;;;;;;;;;1.00;1.00;;;;;;;;5063479;28;45480;-93
2021/10/04 02:50:00;;;;;;;;;1.25;1.00;;;;;;;;5069130;27;45647;-94
2021/10/04 02:52:25;;;;;;;;;2.00;1.00;;;;;;;;4271115;27;16009301;-93
2021/10/04 02:54:51;;;;;;;;;1.00;1.00;;;;;;;;4958549;28;3036250;-93
2021/10/04 02:57:19;;;;;;;;;1.00;1.00;;;;;;;;5064935;27;45626;-92
2021/10/04 02:59:44;;;;;;;;;2.00;2.00;;;;;;;;4381766;28;11614133;-93
2021/10/04 03:02:23;;;;;;;;;1.00;1.00;;;;;;;;5066471;27;46621;-92
2021/10/04 03:04:53;;;;;;;;;2.00;1.00;;;;;;;;5073313;28;45816;-93
2021/10/04 03:07:18;;;;;;;;;2.00;1.00;;;;;;;;4868256;28;5179402;-92
2021/10/04 03:09:44;;;;;;;;;1.00;1.00;;;;;;;;5074461;27;46332;-93
2021/10/04 03:12:10;;;;;;;;;2.25;1.00;;;;;;;;5073145;28;45480;-92
2021/10/04 03:14:41;;;;;;;;;1.00;1.00;;;;;;;;5070198;27;45750;-93
2021/10/04 03:17:06;;;;;;;;;1.00;1.00;;;;;;;;5073407;28;45215;-92
2021/10/04 03:19:31;;;;;;;;;1.25;1.25;;;;;;;;5072331;27;45860;-93
2021/10/04 03:21:57;;;;;;;;;0.00;0.00;;;;;;;;5072265;28;46818;-93
2021/10/04 03:24:22;;;;;;;;;1.00;1.00;;;;;;;;5072148;28;45558;-93
2021/10/04 03:26:53;;;;;;;;;3.75;1.00;;;;;;;;5067041;27;45465;-93
2021/10/04 03:29:18;;;;;;;;;1.50;0.25;;;;;;;;5068901;27;45698;-92
2021/10/04 03:31:44;;;;;;;;;2.00;1.00;;;;;;;;4153664;27;26354268;-92
2021/10/04 03:34:09;;;;;;;;;1.00;1.00;;;;;;;;5069675;28;45900;-92
2021/10/04 03:36:56;;;;;;;;;3.00;2.00;;;;;;;;5071066;27;45789;-93
2021/10/04 03:39:27;;;;;;;;;3.00;1.00;;;;;;;;5064512;28;47368;-92
2021/10/04 03:41:56;;;;;;;;;1.25;1.00;;;;;;;;5071340;28;45446;-92
2021/10/04 03:44:24;;;;;;;;;1.25;0.50;;;;;;;;5067599;27;45602;-93
2021/10/04 03:46:55;;;;;;;;;1.00;1.00;;;;;;;;3746240;27;19386111;-93
2021/10/04 03:49:20;;;;;;;;;2.00;1.00;;;;;;;;4980769;22;2675691;-76
2021/10/04 03:51:46;;;;;;;;;3.00;1.00;;;;;;;;5040742;28;45555;-76
2021/10/04 03:54:11;;;;;;;;;1.50;1.25;;;;;;;;5029566;28;52828;-77
2021/10/04 03:56:36;;;;;;;;;1.00;1.00;;;;;;;;5029707;28;46452;-76
2021/10/04 03:59:01;;;;;;;;;2.00;2.00;;;;;;;;5037686;28;46687;-76
2021/10/04 04:01:27;;;;;;;;;2.33;1.00;;;;;;;;5037012;28;45970;-77
2021/10/04 04:03:52;;;;;;;;;2.75;1.00;;;;;;;;5032689;28;46056;-76
2021/10/04 04:06:18;;;;;;;;;1.00;1.00;;;;;;;;5034694;28;46496;-76
2021/10/04 04:08:43;;;;;;;;;0.75;0.00;;;;;;;;5033501;28;45516;-77
2021/10/04 04:11:09;;;;;;;;;0.00;0.00;;;;;;;;4528883;28;11503625;-76
2021/10/04 04:13:34;;;;;;;;;1.00;1.00;;;;;;;;4672618;28;4825689;-76
2021/10/04 04:16:00;;;;;;;;;1.50;1.00;;;;;;;;5037609;28;47113;-77
2021/10/04 04:18:25;;;;;;;;;1.00;1.00;;;;;;;;5114374;22;45692;-75
2021/10/04 04:20:50;;;;;;;;;3.00;1.00;;;;;;;;5041219;28;46807;-76
2021/10/04 04:23:15;;;;;;;;;1.00;1.00;;;;;;;;5032546;28;45912;-76
2021/10/04 04:25:41;;;;;;;;;3.00;1.00;;;;;;;;5036231;28;45505;-76
2021/10/04 04:28:06;;;;;;;;;2.00;1.67;;;;;;;;5034188;28;45664;-76
2021/10/04 04:30:33;;;;;;;;;3.50;0.00;;;;;;;;4686482;28;12202012;-76
2021/10/04 04:32:59;;;;;;;;;1.00;1.00;;;;;;;;5035912;28;45538;-76
2021/10/04 04:35:24;;;;;;;;;3.00;2.00;;;;;;;;5036185;28;47195;-76
2021/10/04 04:37:49;;;;;;;;;0.00;0.00;;;;;;;;5040415;28;47618;-76
2021/10/04 04:40:16;;;;;;;;;1.00;1.00;;;;;;;;5033290;28;45740;-76
2021/10/04 04:42:42;;;;;;;;;2.25;1.00;;;;;;;;5036682;28;45978;-76
2021/10/04 04:45:09;;;;;;;;;0.75;0.75;;;;;;;;5034329;28;48228;-76
2021/10/04 04:47:34;;;;;;;;;1.50;1.00;;;;;;;;5033807;28;45644;-76
2021/10/04 04:50:00;;;;;;;;;2.00;2.00;;;;;;;;5036654;28;46025;-76
2021/10/04 04:52:25;;;;;;;;;2.00;1.00;;;;;;;;5034948;28;46514;-77
2021/10/04 04:54:50;;;;;;;;;2.00;1.00;;;;;;;;5037757;28;45580;-77
2021/10/04 04:57:15;;;;;;;;;2.00;1.00;;;;;;;;5033755;28;45773;-77
2021/10/04 04:59:41;;;;;;;;;1.50;1.00;;;;;;;;5032238;28;48609;-77
2021/10/04 05:02:06;;;;;;;;;1.00;1.00;;;;;;;;5036984;28;45812;-77
2021/10/04 05:04:31;;;;;;;;;2.00;2.00;;;;;;;;5034065;28;45500;-77
2021/10/04 05:06:57;;;;;;;;;0.50;0.50;;;;;;;;5037071;28;45832;-77
2021/10/04 05:09:22;;;;;;;;;1.00;1.00;;;;;;;;5035430;28;46128;-77
2021/10/04 05:11:48;;;;;;;;;3.00;2.00;;;;;;;;5035625;28;45671;-76
2021/10/04 05:14:13;;;;;;;;;2.00;0.33;;;;;;;;5037116;28;45589;-77
2021/10/04 05:16:39;;;;;;;;;1.25;1.00;;;;;;;;5034859;28;48127;-76
2021/10/04 05:19:04;;;;;;;;;1.00;1.00;;;;;;;;5030379;28;45322;-77
2021/10/04 05:21:29;;;;;;;;;3.75;0.00;;;;;;;;5033791;28;45469;-77
2021/10/04 05:23:55;;;;;;;;;2.00;2.00;;;;;;;;5034980;28;45657;-77
2021/10/04 05:26:20;;;;;;;;;2.00;1.75;;;;;;;;5034941;28;46337;-77
2021/10/04 05:28:45;;;;;;;;;1.33;1.33;;;;;;;;5032450;28;45788;-76
2021/10/04 05:31:10;;;;;;;;;0.00;0.00;;;;;;;;5036661;28;46086;-77
2021/10/04 05:33:36;;;;;;;;;1.00;1.00;;;;;;;;5038007;28;45565;-77
2021/10/04 05:36:02;;;;;;;;;1.75;1.75;;;;;;;;5032360;28;46315;-77
2021/10/04 05:38:27;;;;;;;;;1.00;1.00;;;;;;;;5035711;28;45642;-77
2021/10/04 05:40:53;;;;;;;;;4.00;1.00;;;;;;;;5032582;28;45738;-77
2021/10/04 05:43:18;;;;;;;;;1.50;1.00;;;;;;;;5038369;28;45823;-77
2021/10/04 05:45:43;;;;;;;;;1.50;1.50;;;;;;;;5072248;22;46076;-76
2021/10/04 05:48:09;;;;;;;;;1.00;0.75;;;;;;;;5030062;28;46098;-76
2021/10/04 05:50:34;;;;;;;;;1.00;1.00;;;;;;;;5032821;28;46017;-76
2021/10/04 05:52:59;;;;;;;;;2.00;1.00;;;;;;;;5036872;28;45606;-76
2021/10/04 05:55:24;;;;;;;;;2.00;2.00;;;;;;;;5034039;28;46513;-77
2021/10/04 05:57:50;;;;;;;;;1.00;1.00;;;;;;;;5036376;28;45590;-77
2021/10/04 06:00:15;;;;;;;;;1.00;1.00;;;;;;;;5034572;28;45562;-77
2021/10/04 06:02:40;;;;;;;;;1.00;1.00;;;;;;;;5034190;28;46478;-77
2021/10/04 06:05:07;;;;;;;;;2.00;0.25;;;;;;;;5038244;28;45679;-77
2021/10/04 06:07:32;;;;;;;;;2.00;1.50;;;;;;;;5032524;28;45649;-77
2021/10/04 06:09:57;;;;;;;;;4.00;1.00;;;;;;;;5037162;28;47270;-77
2021/10/04 06:12:29;;;;;;;;;2.50;0.75;;;;;;;;5041480;28;45566;-77
2021/10/04 06:14:55;;;;;;;;;2.25;1.00;;;;;;;;5030780;28;45553;-76
2021/10/04 06:17:20;;;;;;;;;1.00;1.00;;;;;;;;5043866;28;46412;-77
2021/10/04 06:19:46;;;;;;;;;1.00;0.50;;;;;;;;5038808;28;45576;-77
2021/10/04 06:22:11;;;;;;;;;1.00;1.00;;;;;;;;5033610;28;45777;-77
2021/10/04 06:27:26;;;;;;;;;1.25;0.75;;;;;;;;4501666;22;45953;-93
2021/10/04 06:30:01;;;;;;;;;2.75;1.50;;;;;;;;4401578;28;10127874;-94
2021/10/04 06:32:26;;;;;;;;;1.33;1.00;;;;;;;;4533119;22;14826731;-77
2021/10/04 06:34:51;;;;;;;;;2.00;1.00;;;;;;;;4022855;28;14537160;-78
2021/10/04 06:37:16;;;;;;;;;2.00;1.00;;;;;;;;4734440;28;8556433;-76
2021/10/04 06:39:42;;;;;;;;;1.33;1.33;;;;;;;;5035523;28;45610;-77
2021/10/04 06:42:08;;;;;;;;;1.00;1.00;;;;;;;;5037583;28;45678;-76
2021/10/04 06:44:33;;;;;;;;;2.75;1.00;;;;;;;;5037965;28;45606;-77
2021/10/04 06:47:01;;;;;;;;;2.00;2.00;;;;;;;;5043889;28;45590;-76
2021/10/04 06:49:27;;;;;;;;;3.75;1.50;;;;;;;;5039967;28;46278;-77
2021/10/04 06:51:52;;;;;;;;;2.25;1.75;;;;;;;;5039111;28;47193;-79
2021/10/04 06:54:17;;;;;;;;;4.00;2.00;;;;;;;;5034237;28;45801;-79
2021/10/04 06:56:42;;;;;;;;;4.00;2.00;;;;;;;;5038523;28;45814;-79
2021/10/04 06:59:08;;;;;;;;;2.00;2.00;;;;;;;;5091181;22;46805;-93
2021/10/04 07:01:35;;;;;;;;;3.00;1.67;;;;;;;;5083527;22;46792;-79
2021/10/04 07:04:01;;;;;;;;;3.00;2.00;;;;;;;;5045145;28;45578;-78
2021/10/04 07:06:27;;;;;;;;;1.00;1.00;;;;;;;;5039846;28;47339;-79
2021/10/04 07:08:52;;;;;;;;;2.67;1.00;;;;;;;;5039497;28;53078;-80
2021/10/04 07:11:17;;;;;;;;;1.67;1.67;;;;;;;;5041405;28;45805;-78
2021/10/04 07:13:42;;;;;;;;;2.00;2.00;;;;;;;;5046625;28;45650;-79
2021/10/04 07:16:11;;;;;;;;;1.67;1.67;;;;;;;;5044329;28;45464;-79
2021/10/04 07:18:37;;;;;;;;;1.00;1.00;;;;;;;;5044622;28;46307;-79
2021/10/04 07:21:02;;;;;;;;;2.00;1.00;;;;;;;;5042801;28;45610;-79
2021/10/04 07:23:27;;;;;;;;;1.67;1.67;;;;;;;;5046649;28;46921;-79
2021/10/04 07:25:52;;;;;;;;;6.00;2.67;;;;;;;;5054030;27;45558;-79
2021/10/04 07:28:17;;;;;;;;;4.67;2.00;;;;;;;;5044386;28;46407;-80
2021/10/04 07:30:43;;;;;;;;;2.00;2.00;;;;;;;;5043260;28;45468;-79
2021/10/04 07:33:08;;;;;;;;;3.75;2.00;;;;;;;;5045475;28;45508;-79
2021/10/04 07:35:34;;;;;;;;;1.00;1.00;;;;;;;;5045061;28;45591;-81
2021/10/04 07:37:59;;;;;;;;;1.75;1.75;;;;;;;;5309111;22;45971;-78
2021/10/04 07:40:24;;;;;;;;;3.00;1.25;;;;;;;;5063742;27;45556;-80
2021/10/04 07:42:50;;;;;;;;;5.50;2.00;;;;;;;;5065364;27;45654;-78
2021/10/04 07:45:16;;;;;;;;;1.00;1.00;;;;;;;;5057122;28;45561;-78
2021/10/04 07:47:41;;;;;;;;;1.50;1.50;;;;;;;;5062114;28;46352;-78
2021/10/04 07:50:08;;;;;;;;;1.75;1.75;;;;;;;;5057991;27;45555;-78
2021/10/04 07:52:33;;;;;;;;;1.00;1.00;;;;;;;;5058494;28;45727;-78
2021/10/04 07:54:59;;;;;;;;;0.75;0.75;;;;;;;;5064220;28;45887;-78
2021/10/04 07:57:25;;;;;;;;;0.75;0.75;;;;;;;;5064146;27;53282;-77
2021/10/04 07:59:50;;;;;;;;;3.50;3.00;;;;;;;;5057135;28;45566;-78
2021/10/04 08:02:15;;;;;;;;;2.50;1.00;;;;;;;;5067358;28;45205;-76
2021/10/04 08:04:40;;;;;;;;;3.67;1.00;;;;;;;;5058829;28;45704;-77
2021/10/04 08:07:05;;;;;;;;;2.33;1.00;;;;;;;;5064808;28;49996;-77
2021/10/04 08:09:31;;;;;;;;;6.25;2.25;;;;;;;;5059570;27;46096;-77
2021/10/04 08:11:56;;;;;;;;;1.50;1.00;;;;;;;;5062741;28;45636;-78
2021/10/04 08:14:22;;;;;;;;;1.00;1.00;;;;;;;;5059946;27;45842;-79
2021/10/04 08:16:47;;;;;;;;;1.25;1.25;;;;;;;;5063013;27;46858;-78
2021/10/04 08:19:13;;;;;;;;;2.25;0.50;;;;;;;;5061518;28;45556;-77
2021/10/04 08:21:38;;;;;;;;;5.00;2.00;;;;;;;;5060665;27;45671;-78
2021/10/04 08:24:03;;;;;;;;;1.00;1.00;;;;;;;;5060298;28;45783;-78
2021/10/04 08:26:28;;;;;;;;;1.75;1.75;;;;;;;;5063742;27;47264;-77
2021/10/04 08:28:54;;;;;;;;;1.00;1.00;;;;;;;;5062458;28;46703;-77
2021/10/04 08:31:20;;;;;;;;;0.75;0.75;;;;;;;;5059610;27;45693;-78
2021/10/04 08:33:45;;;;;;;;;3.75;1.50;;;;;;;;5069336;28;46387;-80
2021/10/04 08:36:11;;;;;;;;;2.00;1.00;;;;;;;;5062226;28;45496;-78
2021/10/04 08:38:36;;;;;;;;;3.75;2.25;;;;;;;;5056221;28;45864;-77
2021/10/04 08:41:02;;;;;;;;;1.00;1.00;;;;;;;;5060465;28;45552;-77
2021/10/04 08:43:27;;;;;;;;;1.00;1.00;;;;;;;;5057388;28;45637;-77
2021/10/04 08:45:57;;;;;;;;;3.25;2.00;;;;;;;;5059685;28;45626;-77
2021/10/04 08:48:22;;;;;;;;;2.00;1.00;;;;;;;;5055946;27;45583;-78
2021/10/04 08:50:48;;;;;;;;;1.00;1.00;;;;;;;;5054608;28;56351;-78
2021/10/04 08:53:14;;;;;;;;;1.50;1.00;;;;;;;;5044624;28;46623;-78
2021/10/04 08:55:39;;;;;;;;;3.75;1.00;;;;;;;;5042334;28;46140;-78
2021/10/04 08:58:11;;;;;;;;;0.50;0.50;;;;;;;;5058818;28;45538;-79
2021/10/04 09:00:37;;;;;;;;;5.50;2.25;;;;;;;;5052403;28;45583;-78
2021/10/04 09:03:03;;;;;;;;;7.75;3.75;;;;;;;;5048512;28;46174;-78
2021/10/04 09:05:28;;;;;;;;;1.25;1.25;;;;;;;;5055134;27;45840;-78
2021/10/04 09:09:50;;;;;;;;;;;;;;;;;;4384793;22;130628622;-94
2021/10/04 09:12:21;;;;;;;;;2.50;1.00;;;;;;;;5085962;27;47078;-93
2021/10/04 09:14:46;;;;;;;;;0.00;0.00;;;;;;;;5072191;22;47505;-80
2021/10/04 09:23:26;;;;;;;;;;;;;;;;;;351386;27;261109957;-79
2021/10/04 09:32:21;;;;;;;;;0.00;0.00;;;;;;;;2;252092615;252092615;-78
2021/10/04 09:40:41;;;;;;;;;2.00;0.00;;;;;;;;2;261097445;261097445;-81
2021/10/04 09:49:45;;;;;;;;;0.00;0.00;;;;;;;;2;252103121;252103121;-81
2021/10/04 09:58:13;;;;;;;;;0.00;0.00;;;;;;;;2;261092632;261092632;-81
2021/10/04 10:02:45;;;;;;;;;2.00;0.50;;;;;;;;2;252089321;252089321;-81
2021/10/04 10:12:00;;;;;;;;;0.50;0.50;;;;;;;;376465;27;279122508;-81
2021/10/04 10:20:07;;;;;;;;;0.50;0.50;;;;;;;;2;234100460;234100460;-80
2021/10/04 10:29:08;;;;;;;;;2.00;2.00;;;;;;;;2;279102161;279102161;-80
2021/10/04 10:38:57;;;;;;;;;0.00;0.00;;;;;;;;2;234089601;234089601;-82
2021/10/04 10:42:12;;;;;;;;;1.00;1.00;;;;;;;;2545292;28;52350547;-81
2021/10/04 10:44:56;;;;;;;;;0.75;0.75;;;;;;;;4167604;28;14238133;-81
2021/10/04 10:47:33;;;;;;;;;2.00;1.00;;;;;;;;4851140;28;2100773;-81
2021/10/04 10:49:59;;;;;;;;;1.00;0.00;;;;;;;;4919270;28;46120;-81
2021/10/04 10:52:35;;;;;;;;;10.00;9.75;;;;;;;;4918272;28;45799;-81
2021/10/04 10:55:01;;;;;;;;;1.75;1.00;;;;;;;;4878022;28;1237561;-81
2021/10/04 10:57:46;;;;;;;;;1.75;1.75;;;;;;;;4921132;28;45644;-81
2021/10/04 11:00:18;;;;;;;;;6.00;1.00;;;;;;;;4905346;28;45615;-81
2021/10/04 11:02:54;;;;;;;;;1.25;1.00;;;;;;;;4916429;28;45560;-81
2021/10/04 11:05:37;;;;;;;;;2.25;1.00;;;;;;;;4918480;28;45837;-82
2021/10/04 11:08:03;;;;;;;;;1.00;1.00;;;;;;;;4920332;28;45543;-81
2021/10/04 11:10:29;;;;;;;;;1.00;1.00;;;;;;;;4918224;28;45684;-82
2021/10/04 11:13:07;;;;;;;;;3.50;1.00;;;;;;;;4924371;28;45576;-81
2021/10/04 11:15:32;;;;;;;;;1.00;0.75;;;;;;;;4924371;28;45551;-82
2021/10/04 11:17:57;;;;;;;;;1.00;1.00;;;;;;;;4918947;28;45600;-81
2021/10/04 11:20:23;;;;;;;;;0.67;0.67;;;;;;;;4918067;28;45635;-82
2021/10/04 11:22:48;;;;;;;;;1.00;0.00;;;;;;;;4904787;28;46557;-82
2021/10/04 11:25:13;;;;;;;;;5.00;1.00;;;;;;;;5051213;23;48296;-93
2021/10/04 11:27:48;;;;;;;;;1.00;0.25;;;;;;;;4930990;23;45576;-82
2021/10/04 11:30:14;;;;;;;;;1.25;0.00;;;;;;;;4929858;28;45573;-81
2021/10/04 11:32:39;;;;;;;;;0.00;0.00;;;;;;;;4919850;28;45622;-81
2021/10/04 11:35:12;;;;;;;;;1.00;1.00;;;;;;;;4924719;28;45579;-82
2021/10/04 11:37:37;;;;;;;;;0.00;0.00;;;;;;;;4927728;28;46736;-81
2021/10/04 11:40:04;;;;;;;;;0.00;0.00;;;;;;;;4928316;28;45464;-81
2021/10/04 11:42:32;;;;;;;;;0.25;0.00;;;;;;;;4919838;28;45877;-82
2021/10/04 11:45:00;;;;;;;;;0.00;0.00;;;;;;;;4923454;28;46456;-81
2021/10/04 11:47:25;;;;;;;;;0.75;0.00;;;;;;;;4925684;28;45824;-82
2021/10/04 11:49:52;;;;;;;;;0.50;0.00;;;;;;;;4908461;28;45564;-81
2021/10/04 11:52:19;;;;;;;;;2.50;1.00;;;;;;;;4932033;28;53844;-82
2021/10/04 11:55:04;;;;;;;;;27.75;15.75;;;;;;;;4952904;23;46379;-94
2021/10/04 11:57:32;;;;;;;;;4.25;3.25;;;;;;;;4931917;28;45704;-94
2021/10/04 12:00:00;;;;;;;;;3.25;1.50;;;;;;;;4933260;28;45567;-94
2021/10/04 12:02:53;;;;;;;;;1.00;1.00;;;;;;;;4917587;28;46852;-93
2021/10/04 12:05:45;;;;;;;;;1.25;1.25;;;;;;;;4938724;28;46695;-94
2021/10/04 12:08:18;;;;;;;;;1.00;1.00;;;;;;;;4917151;28;45811;-94
2021/10/04 12:11:18;;;;;;;;;3.50;0.00;;;;;;;;4930228;28;45777;-95
2021/10/04 12:13:43;;;;;;;;;0.75;0.00;;;;;;;;4931799;28;45529;-95
2021/10/04 12:19:14;;;;;;;;;0.00;0.00;;;;;;;;4886599;23;45478;-82
2021/10/04 12:21:39;;;;;;;;;0.50;0.50;;;;;;;;4918261;28;45755;-88
2021/10/04 12:24:28;;;;;;;;;0.00;0.00;;;;;;;;4923278;28;46073;-83
2021/10/04 12:27:02;;;;;;;;;0.00;0.00;;;;;;;;4919856;28;45618;-83
2021/10/04 12:29:30;;;;;;;;;0.25;0.00;;;;;;;;4932705;28;45745;-83
2021/10/04 12:31:55;;;;;;;;;1.75;0.00;;;;;;;;4934713;28;45650;-83
2021/10/04 12:34:24;;;;;;;;;0.00;0.00;;;;;;;;4938743;28;47024;-82
2021/10/04 12:36:50;;;;;;;;;0.00;0.00;;;;;;;;4934828;28;47372;-82
2021/10/04 12:39:15;;;;;;;;;0.00;0.00;;;;;;;;4922794;28;49344;-83
2021/10/04 12:41:44;;;;;;;;;0.00;0.00;;;;;;;;4937815;28;46003;-84
2021/10/04 12:44:17;;;;;;;;;0.00;0.00;;;;;;;;4936636;28;45707;-81
2021/10/04 12:47:01;;;;;;;;;1.25;1.25;;;;;;;;4932182;28;45903;-81
2021/10/04 12:49:27;;;;;;;;;2.00;2.00;;;;;;;;4936393;28;45606;-83
2021/10/04 12:51:52;;;;;;;;;1.00;1.00;;;;;;;;5022470;23;45966;-82
2021/10/04 12:54:17;;;;;;;;;3.00;1.33;;;;;;;;4930486;28;45921;-83
2021/10/04 12:56:49;;;;;;;;;0.67;0.00;;;;;;;;4923697;28;46104;-82
2021/10/04 12:59:15;;;;;;;;;0.00;0.00;;;;;;;;4908987;28;45642;-79
2021/10/04 13:01:54;;;;;;;;;6.50;5.50;;;;;;;;5220455;23;46231;-80
2021/10/04 13:04:25;;;;;;;;;6.00;5.00;;;;;;;;5104301;23;45640;-82
2021/10/04 13:06:50;;;;;;;;;13.50;9.00;;;;;;;;4899360;28;48799;-82
2021/10/04 13:09:16;;;;;;;;;1.25;0.75;;;;;;;;4907442;28;46071;-82
2021/10/04 13:11:46;;;;;;;;;3.67;1.00;;;;;;;;4927022;28;45695;-83
2021/10/04 13:14:11;;;;;;;;;2.00;1.00;;;;;;;;4929221;28;45615;-83
2021/10/04 13:16:36;;;;;;;;;1.75;1.75;;;;;;;;4921278;28;45484;-82
2021/10/04 13:19:02;;;;;;;;;1.00;0.00;;;;;;;;4919079;28;47753;-83
2021/10/04 13:21:27;;;;;;;;;1.75;0.25;;;;;;;;4919078;28;45596;-83
2021/10/04 13:23:52;;;;;;;;;2.67;2.00;;;;;;;;4924335;28;45629;-82
2021/10/04 13:26:19;;;;;;;;;0.00;0.00;;;;;;;;4927834;28;46046;-82
2021/10/04 13:28:44;;;;;;;;;2.00;1.00;;;;;;;;4924337;28;45593;-82
2021/10/04 13:31:12;;;;;;;;;7.25;5.75;;;;;;;;4917552;28;45616;-82
2021/10/04 13:33:41;;;;;;;;;1.50;1.00;;;;;;;;4916718;28;46804;-82
2021/10/04 13:36:07;;;;;;;;;1.00;1.00;;;;;;;;4919247;28;45659;-83
2021/10/04 13:38:32;;;;;;;;;0.75;0.75;;;;;;;;4922530;28;316399;-82
2021/10/04 13:40:58;;;;;;;;;0.25;0.00;;;;;;;;4920675;28;45933;-81
2021/10/04 13:43:23;;;;;;;;;0.00;0.00;;;;;;;;4922446;28;45883;-82
2021/10/04 13:45:49;;;;;;;;;3.75;0.00;;;;;;;;4915759;28;47262;-82
2021/10/04 13:48:14;;;;;;;;;1.00;1.00;;;;;;;;4925253;28;46307;-83
2021/10/04 13:50:39;;;;;;;;;0.25;0.00;;;;;;;;4923998;28;47389;-82
2021/10/04 13:53:04;;;;;;;;;2.00;0.00;;;;;;;;4924374;28;45943;-81
2021/10/04 13:55:30;;;;;;;;;3.00;1.00;;;;;;;;4914660;28;47381;-82
2021/10/04 13:57:55;;;;;;;;;2.25;1.25;;;;;;;;4921842;28;45944;-82
2021/10/04 14:00:20;;;;;;;;;2.00;2.00;;;;;;;;4920049;28;46165;-83
2021/10/04 14:02:46;;;;;;;;;2.25;1.00;;;;;;;;4916866;28;45699;-82
2021/10/04 14:05:12;;;;;;;;;6.50;4.00;;;;;;;;4888131;28;47333;-82
2021/10/04 14:07:40;;;;;;;;;5.75;3.75;;;;;;;;4934627;28;45612;-84
2021/10/04 14:10:06;;;;;;;;;25.50;20.25;;;;;;;;4931502;28;45606;-84
2021/10/04 14:12:31;;;;;;;;;5.00;5.00;;;;;;;;4898676;28;45486;-84
2021/10/04 14:15:00;;;;;;;;;3.00;3.00;;;;;;;;4914628;28;46680;-83
2021/10/04 14:17:25;;;;;;;;;6.75;5.25;;;;;;;;4914879;28;46847;-83
2021/10/04 14:19:50;;;;;;;;;16.33;12.67;;;;;;;;4918120;28;47665;-84
2021/10/04 14:22:15;;;;;;;;;5.25;3.50;;;;;;;;4919577;28;45824;-85
2021/10/04 14:24:41;;;;;;;;;3.00;3.00;;;;;;;;4902848;28;45938;-84
2021/10/04 14:27:07;;;;;;;;;3.00;3.00;;;;;;;;4906080;28;45984;-83
2021/10/04 14:29:32;;;;;;;;;1.00;1.00;;;;;;;;4914968;28;45777;-84
2021/10/04 14:32:00;;;;;;;;;4.75;0.75;;;;;;;;3067161;28;50391379;-83
2021/10/04 14:34:26;;;;;;;;;1.00;1.00;;;;;;;;4759491;28;4287246;-83
2021/10/04 14:36:51;;;;;;;;;2.00;2.00;;;;;;;;4821079;28;2452910;-84
2021/10/04 14:39:16;;;;;;;;;0.67;0.67;;;;;;;;4916565;28;45576;-83
2021/10/04 14:41:42;;;;;;;;;1.00;1.00;;;;;;;;4912762;28;45551;-83
2021/10/04 14:49:25;;;;;;;;;2.00;2.00;;;;;;;;4951370;28;45675;-85
2021/10/04 14:51:50;;;;;;;;;0.25;0.00;;;;;;;;4949087;28;45596;-84
2021/10/04 14:54:17;;;;;;;;;0.00;0.00;;;;;;;;4897454;28;1710732;-84
2021/10/04 14:56:42;;;;;;;;;0.75;0.00;;;;;;;;4953516;28;46087;-84
2021/10/04 14:59:07;;;;;;;;;1.25;0.00;;;;;;;;4958529;28;45745;-83
2021/10/04 15:01:36;;;;;;;;;2.00;0.00;;;;;;;;4937917;28;45599;-83
2021/10/04 15:04:01;;;;;;;;;0.00;0.00;;;;;;;;4959123;28;46181;-83
2021/10/04 15:06:29;;;;;;;;;2.00;1.00;;;;;;;;4955559;28;46084;-84
2021/10/04 15:08:54;;;;;;;;;0.00;0.00;;;;;;;;4950096;28;45689;-84
2021/10/04 15:11:19;;;;;;;;;0.00;0.00;;;;;;;;4941040;28;45705;-81
2021/10/04 15:13:44;;;;;;;;;1.00;0.00;;;;;;;;4952786;28;45639;-81
2021/10/04 15:16:10;;;;;;;;;0.33;0.00;;;;;;;;4953061;28;48418;-81
2021/10/04 15:18:35;;;;;;;;;0.00;0.00;;;;;;;;4958708;28;46656;-81
2021/10/04 15:21:00;;;;;;;;;0.00;0.00;;;;;;;;4956304;28;47492;-81
2021/10/04 15:23:26;;;;;;;;;0.00;0.00;;;;;;;;4956773;28;45577;-81
2021/10/04 15:25:54;;;;;;;;;0.75;0.25;;;;;;;;4959451;28;45834;-84
2021/10/04 15:28:19;;;;;;;;;1.00;0.00;;;;;;;;4953358;28;45779;-80
2021/10/04 15:30:45;;;;;;;;;0.00;0.00;;;;;;;;4957064;28;55695;-81
2021/10/04 15:33:10;;;;;;;;;0.00;0.00;;;;;;;;4954469;28;45752;-81
2021/10/04 15:35:35;;;;;;;;;0.00;0.00;;;;;;;;4949546;28;46177;-81
2021/10/04 15:38:01;;;;;;;;;1.25;0.00;;;;;;;;4958555;28;45923;-81
2021/10/04 15:40:28;;;;;;;;;1.00;0.00;;;;;;;;4941109;28;45671;-84
2021/10/04 15:42:53;;;;;;;;;0.25;0.25;;;;;;;;4938535;28;45972;-82
2021/10/04 15:45:19;;;;;;;;;0.00;0.00;;;;;;;;4949894;28;46052;-81
2021/10/04 15:47:44;;;;;;;;;1.50;0.50;;;;;;;;4953314;28;45654;-85
2021/10/04 15:50:10;;;;;;;;;1.00;1.00;;;;;;;;4942886;28;45536;-80